sensor_id;sensor_type;location;lat;lon;timestamp;P1;durP1;ratioP1;P2;durP2;ratioP2
15363;SDS011;7781;49.690;6.472;2023-08-12T00:00:06;8.40;;;4.80;;
15363;SDS011;7781;49.690;6.472;2023-08-12T00:02:43;10.03;;;3.73;;
15363;SDS011;7781;49.690;6.472;2023-08-12T00:05:14;9.50;;;4.77;;
15363;SDS011;7781;49.690;6.472;2023-08-12T00:07:43;6.50;;;3.97;;
15363;SDS011;7781;49.690;6.472;2023-08-12T00:10:12;7.13;;;3.50;;
15363;SDS011;7781;49.690;6.472;2023-08-12T00:12:41;6.27;;;3.80;;
15363;SDS011;7781;49.690;6.472;2023-08-12T00:15:10;10.00;;;3.73;;
15363;SDS011;7781;49.690;6.472;2023-08-12T00:17:39;8.00;;;4.07;;
15363;SDS011;7781;49.690;6.472;2023-08-12T00:20:15;7.43;;;4.10;;
15363;SDS011;7781;49.690;6.472;2023-08-12T00:22:44;6.10;;;3.57;;
15363;SDS011;7781;49.690;6.472;2023-08-12T00:25:14;7.60;;;3.20;;
15363;SDS011;7781;49.690;6.472;2023-08-12T00:27:43;4.23;;;3.30;;
15363;SDS011;7781;49.690;6.472;2023-08-12T00:30:12;12.17;;;3.37;;
15363;SDS011;7781;49.690;6.472;2023-08-12T00:32:41;9.00;;;3.10;;
15363;SDS011;7781;49.690;6.472;2023-08-12T00:35:11;3.50;;;2.53;;
15363;SDS011;7781;49.690;6.472;2023-08-12T00:37:41;4.77;;;2.63;;
15363;SDS011;7781;49.690;6.472;2023-08-12T00:40:10;5.03;;;2.80;;
15363;SDS011;7781;49.690;6.472;2023-08-12T00:42:39;4.47;;;3.07;;
15363;SDS011;7781;49.690;6.472;2023-08-12T00:45:08;5.27;;;2.87;;
15363;SDS011;7781;49.690;6.472;2023-08-12T00:47:41;5.27;;;2.90;;
15363;SDS011;7781;49.690;6.472;2023-08-12T00:50:10;7.63;;;3.20;;
15363;SDS011;7781;49.690;6.472;2023-08-12T00:52:42;4.40;;;2.70;;
15363;SDS011;7781;49.690;6.472;2023-08-12T00:55:12;5.33;;;3.07;;
15363;SDS011;7781;49.690;6.472;2023-08-12T00:57:41;6.70;;;3.30;;
15363;SDS011;7781;49.690;6.472;2023-08-12T01:00:10;4.00;;;2.50;;
15363;SDS011;7781;49.690;6.472;2023-08-12T01:02:40;3.43;;;2.50;;
15363;SDS011;7781;49.690;6.472;2023-08-12T01:05:15;4.40;;;2.40;;
15363;SDS011;7781;49.690;6.472;2023-08-12T01:07:45;4.73;;;2.50;;
15363;SDS011;7781;49.690;6.472;2023-08-12T01:10:15;3.47;;;2.60;;
15363;SDS011;7781;49.690;6.472;2023-08-12T01:12:47;4.93;;;2.93;;
15363;SDS011;7781;49.690;6.472;2023-08-12T01:15:23;2.90;;;2.60;;
15363;SDS011;7781;49.690;6.472;2023-08-12T01:17:53;3.67;;;3.27;;
15363;SDS011;7781;49.690;6.472;2023-08-12T01:20:23;4.63;;;2.80;;
15363;SDS011;7781;49.690;6.472;2023-08-12T01:22:57;5.23;;;2.97;;
15363;SDS011;7781;49.690;6.472;2023-08-12T01:25:28;3.03;;;2.73;;
15363;SDS011;7781;49.690;6.472;2023-08-12T01:27:58;6.80;;;2.57;;
15363;SDS011;7781;49.690;6.472;2023-08-12T01:30:26;7.20;;;3.10;;
15363;SDS011;7781;49.690;6.472;2023-08-12T01:32:56;4.10;;;2.63;;
15363;SDS011;7781;49.690;6.472;2023-08-12T01:35:32;8.33;;;3.27;;
15363;SDS011;7781;49.690;6.472;2023-08-12T01:38:04;7.13;;;2.70;;
15363;SDS011;7781;49.690;6.472;2023-08-12T01:40:36;3.40;;;2.60;;
15363;SDS011;7781;49.690;6.472;2023-08-12T01:43:07;6.80;;;3.50;;
15363;SDS011;7781;49.690;6.472;2023-08-12T01:45:36;11.53;;;2.80;;
15363;SDS011;7781;49.690;6.472;2023-08-12T01:48:06;3.90;;;3.20;;
15363;SDS011;7781;49.690;6.472;2023-08-12T01:50:35;4.97;;;2.90;;
15363;SDS011;7781;49.690;6.472;2023-08-12T01:53:03;3.73;;;3.00;;
15363;SDS011;7781;49.690;6.472;2023-08-12T01:55:33;6.23;;;3.20;;
15363;SDS011;7781;49.690;6.472;2023-08-12T01:58:04;4.70;;;3.10;;
15363;SDS011;7781;49.690;6.472;2023-08-12T02:00:32;4.03;;;2.80;;
15363;SDS011;7781;49.690;6.472;2023-08-12T02:03:01;6.03;;;2.77;;
15363;SDS011;7781;49.690;6.472;2023-08-12T02:05:30;8.20;;;2.73;;
15363;SDS011;7781;49.690;6.472;2023-08-12T02:08:00;2.93;;;2.60;;
15363;SDS011;7781;49.690;6.472;2023-08-12T02:10:29;4.37;;;3.13;;
15363;SDS011;7781;49.690;6.472;2023-08-12T02:12:59;4.30;;;2.73;;
15363;SDS011;7781;49.690;6.472;2023-08-12T02:15:32;3.63;;;2.53;;
15363;SDS011;7781;49.690;6.472;2023-08-12T02:18:01;4.93;;;3.10;;
15363;SDS011;7781;49.690;6.472;2023-08-12T02:20:30;5.30;;;3.93;;
15363;SDS011;7781;49.690;6.472;2023-08-12T02:23:00;4.30;;;2.73;;
15363;SDS011;7781;49.690;6.472;2023-08-12T02:25:29;4.83;;;3.13;;
15363;SDS011;7781;49.690;6.472;2023-08-12T02:27:59;4.97;;;2.97;;
15363;SDS011;7781;49.690;6.472;2023-08-12T02:30:28;7.93;;;3.13;;
15363;SDS011;7781;49.690;6.472;2023-08-12T02:32:59;4.33;;;2.70;;
15363;SDS011;7781;49.690;6.472;2023-08-12T02:35:28;4.67;;;3.13;;
15363;SDS011;7781;49.690;6.472;2023-08-12T02:37:56;7.33;;;3.27;;
15363;SDS011;7781;49.690;6.472;2023-08-12T02:40:25;4.80;;;3.00;;
15363;SDS011;7781;49.690;6.472;2023-08-12T02:42:55;4.30;;;3.00;;
15363;SDS011;7781;49.690;6.472;2023-08-12T02:45:28;3.00;;;2.70;;
15363;SDS011;7781;49.690;6.472;2023-08-12T02:47:57;4.00;;;2.83;;
15363;SDS011;7781;49.690;6.472;2023-08-12T02:50:27;3.00;;;2.70;;
15363;SDS011;7781;49.690;6.472;2023-08-12T02:52:56;4.27;;;2.77;;
15363;SDS011;7781;49.690;6.472;2023-08-12T02:55:24;3.80;;;2.73;;
15363;SDS011;7781;49.690;6.472;2023-08-12T02:57:52;2.63;;;2.43;;
15363;SDS011;7781;49.690;6.472;2023-08-12T03:00:21;3.73;;;2.37;;
15363;SDS011;7781;49.690;6.472;2023-08-12T03:02:52;6.57;;;3.23;;
15363;SDS011;7781;49.690;6.472;2023-08-12T03:05:27;7.57;;;3.43;;
15363;SDS011;7781;49.690;6.472;2023-08-12T03:07:55;8.57;;;3.33;;
15363;SDS011;7781;49.690;6.472;2023-08-12T03:10:27;6.70;;;4.07;;
15363;SDS011;7781;49.690;6.472;2023-08-12T03:12:56;7.20;;;3.53;;
15363;SDS011;7781;49.690;6.472;2023-08-12T03:15:26;5.70;;;3.33;;
15363;SDS011;7781;49.690;6.472;2023-08-12T03:17:56;13.60;;;3.90;;
15363;SDS011;7781;49.690;6.472;2023-08-12T03:20:27;4.67;;;3.30;;
15363;SDS011;7781;49.690;6.472;2023-08-12T03:22:55;5.37;;;3.27;;
15363;SDS011;7781;49.690;6.472;2023-08-12T03:25:25;5.23;;;3.40;;
15363;SDS011;7781;49.690;6.472;2023-08-12T03:27:53;8.43;;;3.23;;
15363;SDS011;7781;49.690;6.472;2023-08-12T03:30:22;5.53;;;4.30;;
15363;SDS011;7781;49.690;6.472;2023-08-12T03:32:51;7.00;;;4.10;;
15363;SDS011;7781;49.690;6.472;2023-08-12T03:35:24;7.27;;;3.27;;
15363;SDS011;7781;49.690;6.472;2023-08-12T03:37:55;7.30;;;4.17;;
15363;SDS011;7781;49.690;6.472;2023-08-12T03:40:24;4.83;;;3.23;;
15363;SDS011;7781;49.690;6.472;2023-08-12T03:42:52;6.40;;;4.13;;
15363;SDS011;7781;49.690;6.472;2023-08-12T03:45:24;7.53;;;3.97;;
15363;SDS011;7781;49.690;6.472;2023-08-12T03:47:52;7.87;;;4.90;;
15363;SDS011;7781;49.690;6.472;2023-08-12T03:50:21;10.80;;;5.80;;
15363;SDS011;7781;49.690;6.472;2023-08-12T03:52:52;16.27;;;6.27;;
15363;SDS011;7781;49.690;6.472;2023-08-12T03:55:20;18.03;;;6.20;;
15363;SDS011;7781;49.690;6.472;2023-08-12T03:57:50;11.37;;;6.60;;
15363;SDS011;7781;49.690;6.472;2023-08-12T04:00:19;36.60;;;8.17;;
15363;SDS011;7781;49.690;6.472;2023-08-12T04:02:52;18.37;;;6.97;;
15363;SDS011;7781;49.690;6.472;2023-08-12T04:05:22;25.17;;;7.80;;
15363;SDS011;7781;49.690;6.472;2023-08-12T04:07:52;13.80;;;7.40;;
15363;SDS011;7781;49.690;6.472;2023-08-12T04:10:22;41.37;;;7.80;;
15363;SDS011;7781;49.690;6.472;2023-08-12T04:12:52;17.50;;;7.10;;
15363;SDS011;7781;49.690;6.472;2023-08-12T04:15:21;79.13;;;8.83;;
15363;SDS011;7781;49.690;6.472;2023-08-12T04:17:51;31.57;;;7.60;;
15363;SDS011;7781;49.690;6.472;2023-08-12T04:20:19;47.90;;;7.93;;
15363;SDS011;7781;49.690;6.472;2023-08-12T04:22:49;37.13;;;8.37;;
15363;SDS011;7781;49.690;6.472;2023-08-12T04:25:21;22.43;;;7.27;;
15363;SDS011;7781;49.690;6.472;2023-08-12T04:27:51;98.93;;;7.60;;
15363;SDS011;7781;49.690;6.472;2023-08-12T04:30:21;30.83;;;7.27;;
15363;SDS011;7781;49.690;6.472;2023-08-12T04:32:51;38.37;;;7.33;;
15363;SDS011;7781;49.690;6.472;2023-08-12T04:35:20;10.33;;;7.63;;
15363;SDS011;7781;49.690;6.472;2023-08-12T04:37:48;39.70;;;8.43;;
15363;SDS011;7781;49.690;6.472;2023-08-12T04:40:17;73.37;;;8.27;;
15363;SDS011;7781;49.690;6.472;2023-08-12T04:42:49;45.63;;;8.30;;
15363;SDS011;7781;49.690;6.472;2023-08-12T04:45:20;79.03;;;9.33;;
15363;SDS011;7781;49.690;6.472;2023-08-12T04:47:49;48.60;;;7.37;;
15363;SDS011;7781;49.690;6.472;2023-08-12T04:50:19;24.17;;;6.47;;
15363;SDS011;7781;49.690;6.472;2023-08-12T04:52:49;21.10;;;7.10;;
15363;SDS011;7781;49.690;6.472;2023-08-12T04:55:20;15.17;;;6.73;;
15363;SDS011;7781;49.690;6.472;2023-08-12T04:57:48;8.00;;;6.70;;
15363;SDS011;7781;49.690;6.472;2023-08-12T05:00:17;9.03;;;7.30;;
15363;SDS011;7781;49.690;6.472;2023-08-12T05:02:46;9.50;;;6.33;;
15363;SDS011;7781;49.690;6.472;2023-08-12T05:05:18;9.57;;;7.03;;
15363;SDS011;7781;49.690;6.472;2023-08-12T05:07:49;10.17;;;7.27;;
15363;SDS011;7781;49.690;6.472;2023-08-12T05:10:20;11.63;;;6.83;;
15363;SDS011;7781;49.690;6.472;2023-08-12T05:12:49;9.87;;;6.40;;
15363;SDS011;7781;49.690;6.472;2023-08-12T05:15:21;9.93;;;6.27;;
15363;SDS011;7781;49.690;6.472;2023-08-12T05:17:50;6.00;;;5.40;;
15363;SDS011;7781;49.690;6.472;2023-08-12T05:20:21;10.13;;;5.03;;
15363;SDS011;7781;49.690;6.472;2023-08-12T05:22:50;6.73;;;4.77;;
15363;SDS011;7781;49.690;6.472;2023-08-12T05:25:24;11.73;;;5.83;;
15363;SDS011;7781;49.690;6.472;2023-08-12T05:27:55;9.23;;;6.77;;
15363;SDS011;7781;49.690;6.472;2023-08-12T05:30:25;8.10;;;6.10;;
15363;SDS011;7781;49.690;6.472;2023-08-12T05:32:55;8.80;;;5.80;;
15363;SDS011;7781;49.690;6.472;2023-08-12T05:35:25;9.57;;;5.60;;
15363;SDS011;7781;49.690;6.472;2023-08-12T05:37:53;12.60;;;5.20;;
15363;SDS011;7781;49.690;6.472;2023-08-12T05:40:25;6.97;;;5.60;;
15363;SDS011;7781;49.690;6.472;2023-08-12T05:42:54;8.33;;;5.83;;
15363;SDS011;7781;49.690;6.472;2023-08-12T05:45:25;11.30;;;6.07;;
15363;SDS011;7781;49.690;6.472;2023-08-12T05:47:53;16.20;;;6.33;;
15363;SDS011;7781;49.690;6.472;2023-08-12T05:50:22;8.27;;;5.60;;
15363;SDS011;7781;49.690;6.472;2023-08-12T05:52:51;8.50;;;5.00;;
15363;SDS011;7781;49.690;6.472;2023-08-12T05:55:19;6.47;;;5.50;;
15363;SDS011;7781;49.690;6.472;2023-08-12T05:57:53;6.87;;;5.63;;
15363;SDS011;7781;49.690;6.472;2023-08-12T06:00:22;9.43;;;5.70;;
15363;SDS011;7781;49.690;6.472;2023-08-12T06:02:51;7.00;;;5.50;;
15363;SDS011;7781;49.690;6.472;2023-08-12T06:05:20;9.80;;;6.00;;
15363;SDS011;7781;49.690;6.472;2023-08-12T06:07:49;6.73;;;5.70;;
15363;SDS011;7781;49.690;6.472;2023-08-12T06:10:18;8.93;;;5.40;;
15363;SDS011;7781;49.690;6.472;2023-08-12T06:12:47;10.40;;;5.50;;
15363;SDS011;7781;49.690;6.472;2023-08-12T06:15:16;6.20;;;5.10;;
15363;SDS011;7781;49.690;6.472;2023-08-12T06:17:46;9.23;;;4.63;;
15363;SDS011;7781;49.690;6.472;2023-08-12T06:20:14;7.20;;;4.83;;
15363;SDS011;7781;49.690;6.472;2023-08-12T06:22:44;7.63;;;5.37;;
15363;SDS011;7781;49.690;6.472;2023-08-12T06:25:12;5.93;;;4.67;;
15363;SDS011;7781;49.690;6.472;2023-08-12T06:27:42;6.80;;;4.93;;
15363;SDS011;7781;49.690;6.472;2023-08-12T06:30:11;4.70;;;4.30;;
15363;SDS011;7781;49.690;6.472;2023-08-12T06:32:43;6.00;;;4.30;;
15363;SDS011;7781;49.690;6.472;2023-08-12T06:35:13;6.83;;;5.07;;
15363;SDS011;7781;49.690;6.472;2023-08-12T06:37:42;4.90;;;3.93;;
15363;SDS011;7781;49.690;6.472;2023-08-12T06:40:10;6.93;;;4.37;;
15363;SDS011;7781;49.690;6.472;2023-08-12T06:42:40;7.50;;;4.60;;
15363;SDS011;7781;49.690;6.472;2023-08-12T06:45:09;7.17;;;3.77;;
15363;SDS011;7781;49.690;6.472;2023-08-12T06:47:41;6.03;;;3.30;;
15363;SDS011;7781;49.690;6.472;2023-08-12T06:50:12;8.43;;;3.47;;
15363;SDS011;7781;49.690;6.472;2023-08-12T06:52:42;4.60;;;3.67;;
15363;SDS011;7781;49.690;6.472;2023-08-12T06:55:11;8.20;;;3.67;;
15363;SDS011;7781;49.690;6.472;2023-08-12T06:57:39;6.47;;;3.67;;
15363;SDS011;7781;49.690;6.472;2023-08-12T07:00:09;6.63;;;4.23;;
15363;SDS011;7781;49.690;6.472;2023-08-12T07:02:38;4.40;;;3.53;;
15363;SDS011;7781;49.690;6.472;2023-08-12T07:05:11;6.20;;;3.97;;
15363;SDS011;7781;49.690;6.472;2023-08-12T07:07:41;4.90;;;4.03;;
15363;SDS011;7781;49.690;6.472;2023-08-12T07:10:10;5.37;;;3.70;;
15363;SDS011;7781;49.690;6.472;2023-08-12T07:12:39;8.43;;;3.47;;
15363;SDS011;7781;49.690;6.472;2023-08-12T07:15:08;9.90;;;3.90;;
15363;SDS011;7781;49.690;6.472;2023-08-12T07:17:37;5.80;;;3.43;;
15363;SDS011;7781;49.690;6.472;2023-08-12T07:20:07;6.40;;;3.93;;
15363;SDS011;7781;49.690;6.472;2023-08-12T07:22:37;4.23;;;3.67;;
15363;SDS011;7781;49.690;6.472;2023-08-12T07:25:05;3.83;;;3.50;;
15363;SDS011;7781;49.690;6.472;2023-08-12T07:27:35;4.67;;;3.60;;
15363;SDS011;7781;49.690;6.472;2023-08-12T07:30:04;4.27;;;3.80;;
15363;SDS011;7781;49.690;6.472;2023-08-12T07:32:35;7.40;;;3.80;;
15363;SDS011;7781;49.690;6.472;2023-08-12T07:35:06;6.13;;;3.97;;
15363;SDS011;7781;49.690;6.472;2023-08-12T07:37:37;5.63;;;4.13;;
15363;SDS011;7781;49.690;6.472;2023-08-12T07:40:09;4.70;;;3.80;;
15363;SDS011;7781;49.690;6.472;2023-08-12T07:42:39;5.73;;;3.70;;
15363;SDS011;7781;49.690;6.472;2023-08-12T07:45:09;6.33;;;3.93;;
15363;SDS011;7781;49.690;6.472;2023-08-12T07:47:37;6.13;;;3.83;;
15363;SDS011;7781;49.690;6.472;2023-08-12T07:50:06;5.43;;;3.80;;
15363;SDS011;7781;49.690;6.472;2023-08-12T07:52:35;4.70;;;3.83;;
15363;SDS011;7781;49.690;6.472;2023-08-12T07:55:06;6.10;;;3.83;;
15363;SDS011;7781;49.690;6.472;2023-08-12T07:57:37;8.20;;;4.93;;
15363;SDS011;7781;49.690;6.472;2023-08-12T08:00:06;7.00;;;4.70;;
15363;SDS011;7781;49.690;6.472;2023-08-12T08:02:36;8.33;;;4.20;;
15363;SDS011;7781;49.690;6.472;2023-08-12T08:05:05;4.80;;;4.30;;
15363;SDS011;7781;49.690;6.472;2023-08-12T08:07:35;6.80;;;5.03;;
15363;SDS011;7781;49.690;6.472;2023-08-12T08:10:04;5.60;;;3.90;;
15363;SDS011;7781;49.690;6.472;2023-08-12T08:12:35;7.63;;;4.23;;
15363;SDS011;7781;49.690;6.472;2023-08-12T08:15:04;8.70;;;4.47;;
15363;SDS011;7781;49.690;6.472;2023-08-12T08:17:33;5.90;;;4.20;;
15363;SDS011;7781;49.690;6.472;2023-08-12T08:20:05;6.43;;;4.40;;
15363;SDS011;7781;49.690;6.472;2023-08-12T08:22:35;6.50;;;4.20;;
15363;SDS011;7781;49.690;6.472;2023-08-12T08:25:03;8.80;;;5.20;;
15363;SDS011;7781;49.690;6.472;2023-08-12T08:27:34;8.10;;;4.57;;
15363;SDS011;7781;49.690;6.472;2023-08-12T08:30:02;7.47;;;4.63;;
15363;SDS011;7781;49.690;6.472;2023-08-12T08:32:32;9.10;;;4.90;;
15363;SDS011;7781;49.690;6.472;2023-08-12T08:35:01;10.03;;;4.47;;
15363;SDS011;7781;49.690;6.472;2023-08-12T08:37:30;7.97;;;4.20;;
15363;SDS011;7781;49.690;6.472;2023-08-12T08:39:58;4.50;;;3.90;;
15363;SDS011;7781;49.690;6.472;2023-08-12T08:42:27;9.23;;;3.60;;
15363;SDS011;7781;49.690;6.472;2023-08-12T08:44:58;9.17;;;4.53;;
15363;SDS011;7781;49.690;6.472;2023-08-12T08:47:30;8.80;;;4.60;;
15363;SDS011;7781;49.690;6.472;2023-08-12T08:49:59;4.40;;;3.33;;
15363;SDS011;7781;49.690;6.472;2023-08-12T08:52:32;4.20;;;3.80;;
15363;SDS011;7781;49.690;6.472;2023-08-12T08:55:01;7.00;;;3.43;;
15363;SDS011;7781;49.690;6.472;2023-08-12T08:57:33;6.00;;;3.70;;
15363;SDS011;7781;49.690;6.472;2023-08-12T09:00:16;5.70;;;3.80;;
15363;SDS011;7781;49.690;6.472;2023-08-12T09:02:46;5.07;;;3.60;;
15363;SDS011;7781;49.690;6.472;2023-08-12T09:05:16;9.50;;;3.83;;
15363;SDS011;7781;49.690;6.472;2023-08-12T09:07:46;4.90;;;3.90;;
15363;SDS011;7781;49.690;6.472;2023-08-12T09:10:16;4.97;;;3.60;;
15363;SDS011;7781;49.690;6.472;2023-08-12T09:12:48;4.93;;;3.60;;
15363;SDS011;7781;49.690;6.472;2023-08-12T09:15:21;5.73;;;3.50;;
15363;SDS011;7781;49.690;6.472;2023-08-12T09:17:50;5.70;;;3.67;;
15363;SDS011;7781;49.690;6.472;2023-08-12T09:20:20;5.50;;;3.90;;
15363;SDS011;7781;49.690;6.472;2023-08-12T09:22:55;6.00;;;4.13;;
15363;SDS011;7781;49.690;6.472;2023-08-12T09:25:26;13.93;;;4.43;;
15363;SDS011;7781;49.690;6.472;2023-08-12T09:27:58;5.90;;;4.47;;
15363;SDS011;7781;49.690;6.472;2023-08-12T09:30:29;6.20;;;4.20;;
15363;SDS011;7781;49.690;6.472;2023-08-12T09:33:00;8.73;;;5.47;;
15363;SDS011;7781;49.690;6.472;2023-08-12T09:35:32;6.80;;;4.33;;
15363;SDS011;7781;49.690;6.472;2023-08-12T09:38:05;10.90;;;4.60;;
15363;SDS011;7781;49.690;6.472;2023-08-12T09:40:40;6.60;;;4.50;;
15363;SDS011;7781;49.690;6.472;2023-08-12T09:43:10;7.70;;;4.30;;
15363;SDS011;7781;49.690;6.472;2023-08-12T09:45:43;6.40;;;4.33;;
15363;SDS011;7781;49.690;6.472;2023-08-12T09:48:16;7.00;;;4.40;;
15363;SDS011;7781;49.690;6.472;2023-08-12T09:50:45;8.60;;;4.47;;
15363;SDS011;7781;49.690;6.472;2023-08-12T09:56:13;7.50;;;4.30;;
15363;SDS011;7781;49.690;6.472;2023-08-12T09:58:47;6.97;;;4.13;;
15363;SDS011;7781;49.690;6.472;2023-08-12T10:01:19;5.17;;;4.10;;
15363;SDS011;7781;49.690;6.472;2023-08-12T10:03:49;9.63;;;4.03;;
15363;SDS011;7781;49.690;6.472;2023-08-12T10:06:18;9.23;;;4.20;;
15363;SDS011;7781;49.690;6.472;2023-08-12T10:08:48;11.13;;;4.17;;
15363;SDS011;7781;49.690;6.472;2023-08-12T10:11:18;8.53;;;4.50;;
15363;SDS011;7781;49.690;6.472;2023-08-12T10:13:48;7.60;;;4.07;;
15363;SDS011;7781;49.690;6.472;2023-08-12T10:16:16;6.90;;;4.50;;
15363;SDS011;7781;49.690;6.472;2023-08-12T10:18:48;7.77;;;4.97;;
15363;SDS011;7781;49.690;6.472;2023-08-12T10:21:17;9.00;;;5.37;;
15363;SDS011;7781;49.690;6.472;2023-08-12T10:23:46;5.90;;;4.40;;
15363;SDS011;7781;49.690;6.472;2023-08-12T10:26:17;8.47;;;5.50;;
15363;SDS011;7781;49.690;6.472;2023-08-12T10:28:48;7.87;;;4.80;;
15363;SDS011;7781;49.690;6.472;2023-08-12T10:31:20;5.70;;;4.73;;
15363;SDS011;7781;49.690;6.472;2023-08-12T10:33:51;9.03;;;5.13;;
15363;SDS011;7781;49.690;6.472;2023-08-12T10:36:22;4.00;;;3.60;;
15363;SDS011;7781;49.690;6.472;2023-08-12T10:38:55;8.13;;;4.23;;
15363;SDS011;7781;49.690;6.472;2023-08-12T10:41:25;9.63;;;3.90;;
15363;SDS011;7781;49.690;6.472;2023-08-12T10:43:55;8.70;;;4.33;;
15363;SDS011;7781;49.690;6.472;2023-08-12T10:46:32;7.50;;;4.23;;
15363;SDS011;7781;49.690;6.472;2023-08-12T10:49:03;6.73;;;3.63;;
15363;SDS011;7781;49.690;6.472;2023-08-12T10:51:43;3.87;;;2.80;;
15363;SDS011;7781;49.690;6.472;2023-08-12T10:54:17;5.17;;;2.70;;
15363;SDS011;7781;49.690;6.472;2023-08-12T10:57:04;5.57;;;3.00;;
15363;SDS011;7781;49.690;6.472;2023-08-12T10:59:54;3.77;;;2.97;;
15363;SDS011;7781;49.690;6.472;2023-08-12T11:02:30;4.10;;;2.43;;
15363;SDS011;7781;49.690;6.472;2023-08-12T11:05:01;2.77;;;2.40;;
15363;SDS011;7781;49.690;6.472;2023-08-12T11:07:34;2.23;;;2.03;;
15363;SDS011;7781;49.690;6.472;2023-08-12T11:10:10;4.10;;;2.20;;
15363;SDS011;7781;49.690;6.472;2023-08-12T11:12:47;4.37;;;2.10;;
15363;SDS011;7781;49.690;6.472;2023-08-12T11:15:29;2.50;;;2.20;;
15363;SDS011;7781;49.690;6.472;2023-08-12T11:18:01;4.00;;;2.30;;
15363;SDS011;7781;49.690;6.472;2023-08-12T11:20:31;2.77;;;2.00;;
15363;SDS011;7781;49.690;6.472;2023-08-12T11:23:01;3.07;;;1.97;;
15363;SDS011;7781;49.690;6.472;2023-08-12T11:25:31;3.33;;;1.70;;
15363;SDS011;7781;49.690;6.472;2023-08-12T11:28:03;7.53;;;2.10;;
15363;SDS011;7781;49.690;6.472;2023-08-12T11:30:33;3.53;;;1.80;;
15363;SDS011;7781;49.690;6.472;2023-08-12T11:33:06;4.87;;;2.43;;
15363;SDS011;7781;49.690;6.472;2023-08-12T11:35:34;1.93;;;1.70;;
15363;SDS011;7781;49.690;6.472;2023-08-12T11:38:04;3.37;;;2.03;;
15363;SDS011;7781;49.690;6.472;2023-08-12T11:40:34;1.80;;;1.70;;
15363;SDS011;7781;49.690;6.472;2023-08-12T11:43:03;3.10;;;1.87;;
15363;SDS011;7781;49.690;6.472;2023-08-12T11:45:32;3.43;;;2.17;;
15363;SDS011;7781;49.690;6.472;2023-08-12T11:48:01;3.57;;;2.20;;
15363;SDS011;7781;49.690;6.472;2023-08-12T11:50:33;5.17;;;1.53;;
15363;SDS011;7781;49.690;6.472;2023-08-12T11:53:04;2.50;;;1.97;;
15363;SDS011;7781;49.690;6.472;2023-08-12T11:55:33;3.80;;;2.00;;
15363;SDS011;7781;49.690;6.472;2023-08-12T11:58:05;3.47;;;2.43;;
15363;SDS011;7781;49.690;6.472;2023-08-12T12:00:34;4.20;;;1.73;;
15363;SDS011;7781;49.690;6.472;2023-08-12T12:03:06;5.00;;;1.73;;
15363;SDS011;7781;49.690;6.472;2023-08-12T12:05:40;2.80;;;1.67;;
15363;SDS011;7781;49.690;6.472;2023-08-12T12:08:09;3.13;;;1.57;;
15363;SDS011;7781;49.690;6.472;2023-08-12T12:10:38;2.40;;;1.70;;
15363;SDS011;7781;49.690;6.472;2023-08-12T12:13:06;2.57;;;1.90;;
15363;SDS011;7781;49.690;6.472;2023-08-12T12:15:38;3.63;;;2.10;;
15363;SDS011;7781;49.690;6.472;2023-08-12T12:18:10;2.60;;;1.80;;
15363;SDS011;7781;49.690;6.472;2023-08-12T12:20:54;4.63;;;2.07;;
15363;SDS011;7781;49.690;6.472;2023-08-12T12:23:26;4.20;;;1.80;;
15363;SDS011;7781;49.690;6.472;2023-08-12T12:25:59;2.50;;;2.00;;
15363;SDS011;7781;49.690;6.472;2023-08-12T12:28:29;4.03;;;2.10;;
15363;SDS011;7781;49.690;6.472;2023-08-12T12:30:59;4.87;;;2.00;;
15363;SDS011;7781;49.690;6.472;2023-08-12T12:33:27;8.30;;;2.13;;
15363;SDS011;7781;49.690;6.472;2023-08-12T12:35:57;3.70;;;2.07;;
15363;SDS011;7781;49.690;6.472;2023-08-12T12:38:30;5.67;;;2.47;;
15363;SDS011;7781;49.690;6.472;2023-08-12T12:40:58;7.23;;;2.53;;
15363;SDS011;7781;49.690;6.472;2023-08-12T12:43:27;6.63;;;2.23;;
15363;SDS011;7781;49.690;6.472;2023-08-12T12:45:57;3.40;;;2.20;;
15363;SDS011;7781;49.690;6.472;2023-08-12T12:48:25;5.50;;;2.23;;
15363;SDS011;7781;49.690;6.472;2023-08-12T12:50:56;3.73;;;1.90;;
15363;SDS011;7781;49.690;6.472;2023-08-12T12:53:26;5.13;;;2.20;;
15363;SDS011;7781;49.690;6.472;2023-08-12T12:55:54;3.70;;;2.27;;
15363;SDS011;7781;49.690;6.472;2023-08-12T12:58:24;4.13;;;2.00;;
15363;SDS011;7781;49.690;6.472;2023-08-12T13:00:53;2.40;;;1.87;;
15363;SDS011;7781;49.690;6.472;2023-08-12T13:03:21;2.07;;;1.87;;
15363;SDS011;7781;49.690;6.472;2023-08-12T13:05:50;4.20;;;2.10;;
15363;SDS011;7781;49.690;6.472;2023-08-12T13:08:20;4.10;;;1.90;;
15363;SDS011;7781;49.690;6.472;2023-08-12T13:10:48;2.90;;;1.73;;
15363;SDS011;7781;49.690;6.472;2023-08-12T13:13:17;2.23;;;1.77;;
15363;SDS011;7781;49.690;6.472;2023-08-12T13:15:46;2.53;;;1.80;;
15363;SDS011;7781;49.690;6.472;2023-08-12T13:18:15;3.83;;;1.60;;
15363;SDS011;7781;49.690;6.472;2023-08-12T13:20:45;1.93;;;1.80;;
15363;SDS011;7781;49.690;6.472;2023-08-12T13:23:14;2.67;;;1.80;;
15363;SDS011;7781;49.690;6.472;2023-08-12T13:25:45;4.00;;;2.00;;
15363;SDS011;7781;49.690;6.472;2023-08-12T13:28:14;2.70;;;1.53;;
15363;SDS011;7781;49.690;6.472;2023-08-12T13:30:44;2.77;;;2.00;;
15363;SDS011;7781;49.690;6.472;2023-08-12T13:33:13;4.63;;;1.93;;
15363;SDS011;7781;49.690;6.472;2023-08-12T13:35:41;2.47;;;1.73;;
15363;SDS011;7781;49.690;6.472;2023-08-12T13:38:11;2.70;;;2.00;;
15363;SDS011;7781;49.690;6.472;2023-08-12T13:40:40;3.20;;;1.80;;
15363;SDS011;7781;49.690;6.472;2023-08-12T13:43:10;3.70;;;1.50;;
15363;SDS011;7781;49.690;6.472;2023-08-12T13:45:39;2.23;;;1.53;;
15363;SDS011;7781;49.690;6.472;2023-08-12T13:48:08;3.30;;;2.20;;
15363;SDS011;7781;49.690;6.472;2023-08-12T13:50:37;2.63;;;2.00;;
15363;SDS011;7781;49.690;6.472;2023-08-12T13:53:06;6.90;;;2.13;;
15363;SDS011;7781;49.690;6.472;2023-08-12T13:55:34;4.90;;;2.10;;
15363;SDS011;7781;49.690;6.472;2023-08-12T13:58:03;4.63;;;2.20;;
15363;SDS011;7781;49.690;6.472;2023-08-12T14:00:33;3.30;;;2.23;;
15363;SDS011;7781;49.690;6.472;2023-08-12T14:03:01;5.93;;;2.47;;
15363;SDS011;7781;49.690;6.472;2023-08-12T14:05:30;2.53;;;2.20;;
15363;SDS011;7781;49.690;6.472;2023-08-12T14:07:59;4.37;;;2.20;;
15363;SDS011;7781;49.690;6.472;2023-08-12T14:10:28;6.43;;;2.43;;
15363;SDS011;7781;49.690;6.472;2023-08-12T14:12:57;6.20;;;2.50;;
15363;SDS011;7781;49.690;6.472;2023-08-12T14:15:25;4.83;;;2.27;;
15363;SDS011;7781;49.690;6.472;2023-08-12T14:17:56;3.07;;;2.30;;
15363;SDS011;7781;49.690;6.472;2023-08-12T14:20:25;8.23;;;2.17;;
15363;SDS011;7781;49.690;6.472;2023-08-12T14:22:53;4.37;;;2.17;;
15363;SDS011;7781;49.690;6.472;2023-08-12T14:25:23;2.30;;;2.03;;
15363;SDS011;7781;49.690;6.472;2023-08-12T14:27:52;4.00;;;1.83;;
15363;SDS011;7781;49.690;6.472;2023-08-12T14:30:23;5.10;;;2.07;;
15363;SDS011;7781;49.690;6.472;2023-08-12T14:32:53;3.00;;;1.97;;
15363;SDS011;7781;49.690;6.472;2023-08-12T14:35:23;2.17;;;1.87;;
15363;SDS011;7781;49.690;6.472;2023-08-12T14:37:52;7.40;;;2.50;;
15363;SDS011;7781;49.690;6.472;2023-08-12T14:40:21;3.23;;;2.20;;
15363;SDS011;7781;49.690;6.472;2023-08-12T14:42:50;5.07;;;2.00;;
15363;SDS011;7781;49.690;6.472;2023-08-12T14:45:19;4.47;;;2.17;;
15363;SDS011;7781;49.690;6.472;2023-08-12T14:47:49;4.93;;;2.23;;
15363;SDS011;7781;49.690;6.472;2023-08-12T14:50:18;3.50;;;1.90;;
15363;SDS011;7781;49.690;6.472;2023-08-12T14:52:50;3.37;;;2.13;;
15363;SDS011;7781;49.690;6.472;2023-08-12T14:55:18;2.50;;;2.30;;
15363;SDS011;7781;49.690;6.472;2023-08-12T14:57:47;3.13;;;2.03;;
15363;SDS011;7781;49.690;6.472;2023-08-12T15:00:19;5.33;;;2.33;;
15363;SDS011;7781;49.690;6.472;2023-08-12T15:02:47;5.17;;;2.10;;
15363;SDS011;7781;49.690;6.472;2023-08-12T15:05:16;7.60;;;2.70;;
15363;SDS011;7781;49.690;6.472;2023-08-12T15:07:45;3.17;;;2.70;;
15363;SDS011;7781;49.690;6.472;2023-08-12T15:10:16;3.70;;;2.10;;
15363;SDS011;7781;49.690;6.472;2023-08-12T15:12:45;3.97;;;2.00;;
15363;SDS011;7781;49.690;6.472;2023-08-12T15:15:13;4.83;;;2.43;;
15363;SDS011;7781;49.690;6.472;2023-08-12T15:17:41;4.17;;;2.33;;
15363;SDS011;7781;49.690;6.472;2023-08-12T15:20:11;5.47;;;2.70;;